createdAt,value
2023-06-11T00:04:03.907Z,23.31
2023-06-11T00:09:07.938Z,23.31
2023-06-11T00:14:10.913Z,23.27
2023-06-11T00:19:13.856Z,23.23
2023-06-11T00:24:16.802Z,23.20
2023-06-11T00:29:19.199Z,23.19
2023-06-11T00:34:22.518Z,23.19
2023-06-11T00:39:27.459Z,23.21
2023-06-11T00:44:30.702Z,23.25
2023-06-11T00:49:33.381Z,23.26
2023-06-11T00:54:36.495Z,23.28
2023-06-11T00:59:40.032Z,23.29
2023-06-11T01:10:35.114Z,23.30
2023-06-11T01:15:37.479Z,23.31
2023-06-11T01:20:59.766Z,23.30
2023-06-11T01:26:41.790Z,23.28
2023-06-11T01:31:45.324Z,23.29
2023-06-11T01:36:54.647Z,23.26
2023-06-11T01:42:24.313Z,23.23
2023-06-11T01:47:26.833Z,23.21
2023-06-11T01:52:29.354Z,23.20
2023-06-11T01:57:33.702Z,23.20
2023-06-11T02:02:36.462Z,23.22
2023-06-11T02:07:43.372Z,23.18
2023-06-11T02:12:46.832Z,23.18
2023-06-11T02:17:50.663Z,23.15
2023-06-11T02:22:53.547Z,23.15
2023-06-11T02:28:01.895Z,23.17
2023-06-11T02:33:06.431Z,23.18
2023-06-11T02:38:10.649Z,23.15
2023-06-11T02:43:13.090Z,23.12
2023-06-11T02:48:15.736Z,23.09
2023-06-11T02:53:18.106Z,23.04
2023-06-11T02:58:21.689Z,23.02
2023-06-11T03:03:24.242Z,22.96
2023-06-11T03:08:27.715Z,22.93
2023-06-11T03:13:33.877Z,22.90
2023-06-11T03:18:36.405Z,22.87
2023-06-11T03:23:39.692Z,22.83
2023-06-11T03:28:42.028Z,22.82
2023-06-11T03:33:44.909Z,22.81
2023-06-11T03:38:56.345Z,22.76
2023-06-11T03:43:58.782Z,22.74
2023-06-11T03:49:04.189Z,22.72
2023-06-11T03:54:08.017Z,22.71
2023-06-11T03:59:13.408Z,22.68
2023-06-11T04:04:16.161Z,22.73
2023-06-11T04:09:22.708Z,22.68
2023-06-11T04:14:27.537Z,22.64
2023-06-11T04:33:40.020Z,22.45
2023-06-11T04:38:48.184Z,22.45
2023-06-11T04:43:53.856Z,22.48
2023-06-11T04:49:05.479Z,22.51
2023-06-11T04:54:20.845Z,22.53
2023-06-11T04:59:36.064Z,22.54
2023-06-11T05:04:42.000Z,22.56
2023-06-11T05:09:51.322Z,22.60
2023-06-11T05:15:00.217Z,22.66
2023-06-11T05:20:06.698Z,22.71
2023-06-11T05:25:30.808Z,22.77
2023-06-11T05:30:46.246Z,22.81
2023-06-11T05:35:53.480Z,22.86
2023-06-11T05:40:58.796Z,22.94
2023-06-11T05:46:09.653Z,23.04
2023-06-11T05:51:30.406Z,23.12
2023-06-11T05:56:42.635Z,23.18
2023-06-11T06:01:49.863Z,23.26
2023-06-11T06:07:07.254Z,23.30
2023-06-11T06:12:20.630Z,23.37
2023-06-11T06:17:32.512Z,23.39
2023-06-11T06:27:57.638Z,23.59
2023-06-11T06:33:43.847Z,23.80
2023-06-11T06:39:11.997Z,24.01
2023-06-11T06:44:16.887Z,24.31
2023-06-11T06:49:22.101Z,24.60
2023-06-11T06:54:28.304Z,24.82
2023-06-11T06:59:35.197Z,25.05
2023-06-11T07:04:53.204Z,25.31
2023-06-11T07:10:12.675Z,25.51
2023-06-11T07:15:19.275Z,25.65
2023-06-11T07:20:31.221Z,25.79
2023-06-11T07:25:49.025Z,26.10
2023-06-11T07:30:58.183Z,26.34
2023-06-11T07:36:13.066Z,26.50
2023-06-11T07:41:18.876Z,26.69
2023-06-11T07:46:24.106Z,26.86
2023-06-11T07:51:30.001Z,26.85
2023-06-11T07:56:51.016Z,27.01
2023-06-11T08:02:01.404Z,27.18
2023-06-11T08:07:06.258Z,27.44
2023-06-11T08:12:18.627Z,27.86
2023-06-11T08:17:25.416Z,28.19
2023-06-11T08:22:29.319Z,28.51
2023-06-11T08:27:32.325Z,28.84
2023-06-11T08:32:40.463Z,29.02
2023-06-11T08:37:48.871Z,29.07
2023-06-11T08:42:54.481Z,29.34
2023-06-11T08:48:12.592Z,29.52
2023-06-11T08:53:19.316Z,29.61
2023-06-11T08:58:26.662Z,29.39
2023-06-11T09:03:38.582Z,29.25
2023-06-11T09:08:41.821Z,29.01
2023-06-11T09:13:54.443Z,29.12
2023-06-11T09:18:58.985Z,29.06
2023-06-11T09:24:10.934Z,28.83
2023-06-11T09:29:31.080Z,28.71
2023-06-11T09:34:41.452Z,28.74
2023-06-11T09:39:56.922Z,28.83
2023-06-11T09:45:16.932Z,28.98
2023-06-11T09:50:30.071Z,28.99
2023-06-11T09:55:57.039Z,28.96
2023-06-11T10:01:15.020Z,28.98
2023-06-11T10:06:28.023Z,28.84
2023-06-11T10:11:47.679Z,28.82
2023-06-11T10:16:53.563Z,28.95
2023-06-11T10:22:05.776Z,29.13
2023-06-11T10:27:19.984Z,29.06
2023-06-11T10:32:25.561Z,28.85
2023-06-11T10:37:47.194Z,28.59
2023-06-11T10:42:56.965Z,28.40
2023-06-11T10:48:02.427Z,28.22
2023-06-11T10:53:15.606Z,28.36
2023-06-11T10:58:30.281Z,28.47
2023-06-11T11:03:48.609Z,28.57
2023-06-11T11:08:56.129Z,28.45
2023-06-11T11:14:07.382Z,28.41
2023-06-11T11:19:16.360Z,28.71
2023-06-11T11:24:28.060Z,28.83
2023-06-11T11:29:36.607Z,29.17
2023-06-11T11:34:41.510Z,29.50
2023-06-11T11:39:51.401Z,29.58
2023-06-11T11:44:58.962Z,29.43
2023-06-11T11:50:03.532Z,29.30
2023-06-11T11:55:12.185Z,29.35
2023-06-11T12:00:29.457Z,29.40
2023-06-11T12:05:48.277Z,29.41
2023-06-11T12:10:53.056Z,29.50
2023-06-11T12:15:59.616Z,29.53
2023-06-11T12:21:08.171Z,29.42
2023-06-11T12:26:21.683Z,29.22
2023-06-11T12:31:28.596Z,29.14
2023-06-11T12:36:37.006Z,29.03
2023-06-11T12:41:47.555Z,28.87
2023-06-11T12:47:01.268Z,28.80
2023-06-11T12:52:23.543Z,28.78
2023-06-11T12:57:39.441Z,28.83
2023-06-11T13:02:45.304Z,28.92
2023-06-11T13:13:21.309Z,28.87
2023-06-11T13:18:26.803Z,28.86
2023-06-11T13:23:40.829Z,28.94
2023-06-11T13:29:07.174Z,28.97
2023-06-11T13:34:10.320Z,28.99
2023-06-11T13:39:20.920Z,28.95
2023-06-11T13:44:33.829Z,28.92
2023-06-11T13:55:02.873Z,28.79
2023-06-11T14:00:15.696Z,28.77
2023-06-11T14:05:26.811Z,28.78
2023-06-11T14:10:29.482Z,28.69
2023-06-11T14:15:46.808Z,28.52
2023-06-11T14:20:51.504Z,28.50
2023-06-11T14:25:54.726Z,28.46
2023-06-11T14:31:02.094Z,28.41
2023-06-11T14:36:16.531Z,28.43
2023-06-11T14:41:21.539Z,28.48
2023-06-11T14:46:27.633Z,28.55
2023-06-11T14:51:38.876Z,28.59
2023-06-11T14:56:49.614Z,28.60
2023-06-11T15:02:03.330Z,28.43
2023-06-11T15:07:29.404Z,28.30
2023-06-11T15:12:40.371Z,28.11
2023-06-11T15:17:50.409Z,28.06
2023-06-11T15:23:28.939Z,27.96
2023-06-11T15:28:33.375Z,27.79
2023-06-11T15:39:04.090Z,27.52
2023-06-11T15:44:07.516Z,27.50
2023-06-11T15:49:12.634Z,27.44
2023-06-11T15:54:19.244Z,27.43
2023-06-11T15:59:23.951Z,27.41
2023-06-11T16:04:30.705Z,27.34
2023-06-11T16:09:39.200Z,27.40
2023-06-11T16:14:45.684Z,27.39
2023-06-11T16:20:18.260Z,27.28
2023-06-11T16:25:22.559Z,27.22
2023-06-11T16:30:33.628Z,27.27
2023-06-11T16:35:37.591Z,27.35
2023-06-11T16:40:44.128Z,27.35
2023-06-11T16:46:01.749Z,27.33
2023-06-11T16:51:04.737Z,27.22
2023-06-11T16:56:12.838Z,27.16
2023-06-11T17:01:21.020Z,27.15
2023-06-11T17:06:56.366Z,27.18
2023-06-11T17:12:09.499Z,27.17
2023-06-11T17:17:24.826Z,27.17
2023-06-11T17:22:33.801Z,27.09
2023-06-11T17:27:37.579Z,27.11
2023-06-11T17:32:41.268Z,27.09
2023-06-11T17:37:53.014Z,27.08
2023-06-11T17:43:21.927Z,27.04
2023-06-11T17:48:31.320Z,26.94
2023-06-11T17:59:09.982Z,26.77
2023-06-11T18:04:14.467Z,26.72
2023-06-11T18:09:25.010Z,26.69
2023-06-11T18:14:30.242Z,26.74
2023-06-11T18:19:36.656Z,26.74
2023-06-11T18:24:40.771Z,26.74
2023-06-11T18:29:48.041Z,26.77
2023-06-11T18:40:23.505Z,26.80
2023-06-11T18:45:31.005Z,26.85
2023-06-11T18:50:40.929Z,26.86
2023-06-11T18:55:47.024Z,26.88
2023-06-11T19:00:50.638Z,26.87
2023-06-11T19:05:58.985Z,26.88
2023-06-11T19:11:06.227Z,26.90
2023-06-11T19:16:13.070Z,26.87
2023-06-11T19:21:21.635Z,26.82
2023-06-11T19:26:28.617Z,26.72
2023-06-11T19:31:32.258Z,26.59
2023-06-11T19:36:43.827Z,26.46
2023-06-11T19:41:48.821Z,26.34
2023-06-11T19:46:52.985Z,26.22
2023-06-11T19:52:07.377Z,26.14
2023-06-11T19:57:15.793Z,26.07
2023-06-11T20:02:29.146Z,26.01
2023-06-11T20:07:31.532Z,25.94
2023-06-11T20:12:35.421Z,25.75
2023-06-11T20:22:59.864Z,25.21
2023-06-11T20:28:04.854Z,25.02
2023-06-11T20:33:10.128Z,24.91
2023-06-11T20:38:14.738Z,24.92
2023-06-11T20:43:19.686Z,24.85
2023-06-11T20:48:27.553Z,24.76
2023-06-11T20:53:45.081Z,24.71
2023-06-11T20:59:02.018Z,24.71
2023-06-11T21:04:14.620Z,24.72
2023-06-11T21:09:21.220Z,24.74
2023-06-11T21:14:31.225Z,24.74
2023-06-11T21:19:40.205Z,24.70
2023-06-11T21:24:47.011Z,24.68
2023-06-11T21:29:56.322Z,24.63
2023-06-11T21:35:03.150Z,24.63
2023-06-11T21:40:19.072Z,24.62
2023-06-11T21:45:25.444Z,24.63
2023-06-11T21:50:31.789Z,24.65
2023-06-11T21:55:49.304Z,24.68
2023-06-11T22:00:58.491Z,24.68
2023-06-11T22:06:08.093Z,24.70
2023-06-11T22:11:15.103Z,24.71
2023-06-11T22:16:21.662Z,24.75
2023-06-11T22:21:30.298Z,24.75
2023-06-11T22:26:36.619Z,24.76
2023-06-11T22:31:45.896Z,24.73
2023-06-11T22:36:48.937Z,24.70
2023-06-11T22:41:56.008Z,24.66
2023-06-11T22:52:43.617Z,24.66
2023-06-11T22:57:48.964Z,24.64
2023-06-11T23:02:53.237Z,24.62
2023-06-11T23:08:02.706Z,24.62
2023-06-11T23:13:17.153Z,24.60
2023-06-11T23:18:27.999Z,24.60
2023-06-11T23:23:38.769Z,24.58
2023-06-11T23:28:52.838Z,24.51
2023-06-11T23:34:10.946Z,24.47
2023-06-11T23:39:18.210Z,24.43
2023-06-11T23:44:23.152Z,24.40
2023-06-11T23:49:26.573Z,24.37
2023-06-11T23:54:30.624Z,24.27
2023-06-11T23:59:38.034Z,24.20
